Terminal Aerodrome Forecast
Issued by NWS

Home | Current Version | Previous Version | Text Only | Print | Product List | Glossary On
Versions: 1 2 3 4 5 6 7 8 9 10 11 12 13 14
000
FTUS45 KRIW 130500
TAFCPR
TAF
KCPR 130522Z 1306/1406 VRB05KT P6SM BKN080
     FM130900 VRB04KT P6SM SCT100
     FM131200 02007KT P6SM FEW110
     FM132000 01009KT P6SM SCT080 SCT110
     FM140100 03012KT P6SM VCSH BKN080=

USA.gov is the U.S. government's official web portal to all federal, state and local government web resources and services.